Time;durP1;ratioP1;P1;durP2;ratioP2;P2;SDS_P1;SDS_P2;PMS_P1;PMS_P2;Temp;Humidity;BMP_temperature;BMP_pressure;BME280_temperature;BME280_humidity;BME280_pressure;Samples;Min_cycle;Max_cycle;Signal;HPM_P1;HPM_P2
2021/04/03 00:00:56;;;;;;;20.87;11.87;;;;;;;3.08;77.72;99538.08;234538;1174;115369;-64
2021/04/03 00:05:59;;;;;;;17.15;10.00;;;;;;;3.08;78.63;99538.08;232699;1174;115873;-66
2021/04/03 00:11:07;;;;;;;21.98;13.38;;;;;;;3.16;76.26;99545.84;233551;1174;116773;-66
2021/04/03 00:16:11;;;;;;;25.10;14.53;;;;;;;3.24;75.15;99537.81;233919;1174;115483;-67
2021/04/03 00:21:15;;;;;;;37.90;18.07;;;;;;;3.33;74.30;99530.58;232554;1174;116622;-64
2021/04/03 00:26:19;;;;;;;39.23;15.98;;;;;;;3.59;75.43;99538.64;232735;1174;115775;-66
2021/04/03 00:31:24;;;;;;;24.10;12.63;;;;;;;3.77;74.36;99537.30;233232;1174;115778;-66
2021/04/03 00:36:28;;;;;;;22.28;15.10;;;;;;;3.89;75.57;99530.47;232704;1174;117603;-66
2021/04/03 00:41:32;;;;;;;19.10;11.63;;;;;;;4.00;75.24;99527.25;232799;1175;116217;-67
2021/04/03 00:46:37;;;;;;;24.03;12.90;;;;;;;4.08;76.75;99528.91;233219;1174;115912;-67
2021/04/03 00:51:41;;;;;;;18.65;12.38;;;;;;;4.13;76.89;99534.41;232765;1176;115973;-66
2021/04/03 00:56:45;;;;;;;23.35;13.88;;;;;;;4.20;76.25;99535.25;232872;1171;115824;-68
2021/04/03 01:01:49;;;;;;;21.25;13.73;;;;;;;4.28;76.08;99527.95;233561;1174;116836;-66
2021/04/03 01:06:53;;;;;;;22.13;12.58;;;;;;;4.32;77.91;99523.09;233024;1171;115087;-67
2021/04/03 01:12:26;;;;;;;22.67;13.67;;;;;;;4.35;77.62;99528.78;233071;1174;115313;-68
2021/04/03 01:17:40;;;;;;;18.60;12.53;;;;;;;4.36;77.87;99522.50;233487;1174;116104;-68
2021/04/03 01:23:03;;;;;;;29.48;13.75;;;;;;;4.35;79.70;99525.34;233028;1174;116198;-67
2021/04/03 01:28:26;;;;;;;25.90;13.08;;;;;;;4.39;79.71;99522.10;233838;1174;116123;-69
2021/04/03 01:33:34;;;;;;;16.60;11.98;;;;;;;4.43;80.57;99522.52;233820;1174;117706;-68
2021/04/03 01:38:44;;;;;;;14.55;8.50;;;;;;;4.39;80.20;99524.73;233543;1174;115843;-68
2021/04/03 01:43:51;;;;;;;11.93;6.30;;;;;;;4.30;80.87;99523.29;235188;1174;115377;-67
2021/04/03 01:48:57;;;;;;;15.20;8.60;;;;;;;4.31;80.91;99524.91;233207;1174;116280;-67
2021/04/03 01:54:00;;;;;;;9.08;7.93;;;;;;;4.33;80.43;99517.61;235156;1174;116068;-67
2021/04/03 01:59:08;;;;;;;9.50;8.15;;;;;;;4.33;80.49;99522.89;235001;1174;116529;-68
2021/04/03 02:04:16;;;;;;;12.97;7.73;;;;;;;4.33;79.86;99524.72;233151;1174;116108;-65
2021/04/03 02:09:20;;;;;;;20.17;8.53;;;;;;;4.36;80.54;99529.60;232678;1174;115374;-64
2021/04/03 02:14:24;;;;;;;9.40;6.70;;;;;;;4.27;81.42;99523.72;233892;1174;116383;-66
2021/04/03 02:19:29;;;;;;;8.60;5.83;;;;;;;4.18;80.98;99519.63;234108;1174;114754;-65
2021/04/03 02:24:33;;;;;;;9.43;7.17;;;;;;;4.13;80.45;99522.03;232510;1167;116755;-66
2021/04/03 02:29:38;;;;;;;9.88;8.85;;;;;;;4.09;80.91;99520.80;232623;1174;115536;-67
2021/04/03 02:34:41;;;;;;;8.70;7.83;;;;;;;4.14;82.11;99525.48;233212;1174;118094;-67
2021/04/03 02:40:07;;;;;;;8.57;7.57;;;;;;;4.08;81.32;99518.36;232591;1174;115731;-65
2021/04/03 02:45:16;;;;;;;6.80;5.88;;;;;;;4.01;81.96;99513.88;232734;1174;115787;-65
2021/04/03 02:50:37;;;;;;;7.55;5.88;;;;;;;3.92;81.59;99514.27;233214;1174;115596;-68
2021/04/03 02:55:46;;;;;;;8.98;7.58;;;;;;;3.93;82.42;99521.16;232617;1174;115791;-66
2021/04/03 03:00:53;;;;;;;8.37;5.97;;;;;;;3.84;81.53;99520.51;232708;1174;115894;-66
2021/04/03 03:05:59;;;;;;;8.87;7.53;;;;;;;3.80;81.76;99527.18;233119;1174;116127;-67
2021/04/03 03:11:03;;;;;;;9.50;8.35;;;;;;;3.71;81.94;99520.44;232622;1174;116004;-68
2021/04/03 03:16:10;;;;;;;11.30;8.37;;;;;;;3.64;83.16;99519.61;232721;1174;117395;-67
2021/04/03 03:21:15;;;;;;;17.83;10.93;;;;;;;3.59;83.09;99516.74;233682;1174;116793;-68
2021/04/03 03:26:18;;;;;;;13.50;10.10;;;;;;;3.60;82.79;99523.64;233703;1174;116513;-67
2021/04/03 03:31:21;;;;;;;9.75;7.93;;;;;;;3.61;82.77;99520.00;233858;1174;116603;-68
2021/04/03 03:36:26;;;;;;;9.45;8.53;;;;;;;3.59;82.67;99520.19;232618;1174;115668;-68
2021/04/03 03:41:30;;;;;;;11.30;9.03;;;;;;;3.59;83.32;99522.02;235191;1174;115478;-67
2021/04/03 03:46:33;;;;;;;11.10;8.20;;;;;;;3.67;83.20;99516.56;234972;1174;117481;-68
2021/04/03 03:51:35;;;;;;;11.90;9.60;;;;;;;3.63;83.12;99523.25;234904;1174;116309;-68
2021/04/03 03:56:39;;;;;;;12.03;8.73;;;;;;;3.64;83.78;99530.97;234829;1174;116513;-68
2021/04/03 04:01:44;;;;;;;12.60;9.90;;;;;;;3.61;83.34;99533.99;234045;1174;116456;-67
2021/04/03 04:06:48;;;;;;;11.60;9.90;;;;;;;3.65;83.37;99532.60;233184;1176;115351;-66
2021/04/03 04:11:51;;;;;;;11.68;8.40;;;;;;;3.65;84.06;99537.05;233797;1174;115952;-66
2021/04/03 04:16:54;;;;;;;11.53;10.33;;;;;;;3.67;84.55;99537.64;232824;1176;116150;-68
2021/04/03 04:22:00;;;;;;;11.53;8.63;;;;;;;3.64;83.81;99533.61;233330;1174;116724;-66
2021/04/03 04:27:05;;;;;;;12.67;8.77;;;;;;;3.61;83.56;99544.53;232766;1174;115644;-65
2021/04/03 04:32:09;;;;;;;9.57;8.30;;;;;;;3.55;84.21;99560.30;232619;1174;115428;-67
2021/04/03 04:37:12;;;;;;;2.83;2.53;;;;;;;3.04;82.32;99560.56;233354;1174;116977;-65
2021/04/03 04:42:15;;;;;;;3.55;2.88;;;;;;;2.56;84.49;99585.81;232816;1175;115371;-66
2021/04/03 04:47:19;;;;;;;4.07;2.97;;;;;;;2.20;86.02;99578.73;232947;1174;114896;-65
2021/04/03 04:52:23;;;;;;;4.88;4.38;;;;;;;2.07;85.83;99575.97;233304;1174;115123;-66
2021/04/03 04:57:27;;;;;;;4.70;3.33;;;;;;;2.01;86.87;99587.20;232855;1174;115706;-66
2021/04/03 05:02:30;;;;;;;6.55;4.95;;;;;;;2.04;86.56;99578.95;233490;1174;115961;-66
2021/04/03 05:07:34;;;;;;;6.80;5.30;;;;;;;2.03;87.31;99585.21;232772;1174;114774;-66
2021/04/03 05:12:39;;;;;;;5.53;3.98;;;;;;;2.01;87.93;99608.24;233363;1174;116827;-66
2021/04/03 05:17:43;;;;;;;7.30;5.73;;;;;;;2.02;87.11;99613.31;233936;1174;115372;-66
2021/04/03 05:22:48;;;;;;;6.43;5.30;;;;;;;2.11;87.54;99615.86;233983;1173;114827;-65
2021/04/03 05:27:51;;;;;;;6.50;5.43;;;;;;;2.02;87.04;99628.27;233217;1170;115186;-66
2021/04/03 05:32:55;;;;;;;3.00;2.28;;;;;;;1.85;85.89;99630.25;234764;1174;114898;-66
2021/04/03 05:37:59;;;;;;;6.45;4.00;;;;;;;1.86;87.36;99639.77;234970;1174;114338;-67
2021/04/03 05:43:06;;;;;;;4.20;3.80;;;;;;;1.74;86.48;99637.79;234248;1176;115346;-67
2021/04/03 05:48:09;;;;;;;2.70;2.50;;;;;;;1.74;85.75;99640.42;235034;1174;114507;-65
2021/04/03 05:53:14;;;;;;;11.58;8.95;;;;;;;1.81;86.39;99647.41;234616;1174;115850;-65
2021/04/03 05:58:17;;;;;;;9.70;7.70;;;;;;;1.93;85.91;99647.76;234438;1174;114902;-67
2021/04/03 06:03:21;;;;;;;9.68;6.83;;;;;;;2.02;84.46;99646.67;233492;1174;115211;-67
2021/04/03 06:08:30;;;;;;;14.20;10.40;;;;;;;2.27;85.78;99657.72;232471;1174;115342;-63
2021/04/03 06:13:34;;;;;;;13.73;9.43;;;;;;;2.55;85.58;99653.41;233175;1174;115581;-65
2021/04/03 06:18:37;;;;;;;12.13;8.83;;;;;;;2.68;83.87;99648.30;232569;1174;114885;-66
2021/04/03 06:23:41;;;;;;;15.33;11.87;;;;;;;2.71;84.83;99655.02;232648;1174;115188;-66
2021/04/03 06:28:44;;;;;;;15.73;11.33;;;;;;;2.92;84.81;99654.22;233351;1169;115230;-66
2021/04/03 06:33:46;;;;;;;9.80;8.47;;;;;;;2.93;84.82;99675.09;233307;1174;115429;-65
2021/04/03 06:39:00;;;;;;;13.00;10.25;;;;;;;3.03;84.97;99670.34;232548;1170;114675;-64
2021/04/03 06:44:06;;;;;;;15.65;11.80;;;;;;;3.16;84.32;99674.09;233155;1174;115601;-63
2021/04/03 06:49:12;;;;;;;17.85;12.30;;;;;;;3.33;84.59;99678.13;232726;1174;115555;-63
2021/04/03 06:54:17;;;;;;;16.70;11.38;;;;;;;3.47;84.93;99684.30;232692;1170;114920;-63
2021/04/03 06:59:23;;;;;;;18.40;12.50;;;;;;;3.62;83.08;99695.59;233700;1174;115138;-64
2021/04/03 07:04:43;;;;;;;21.20;14.95;;;;;;;3.78;83.91;99702.39;234250;1174;115062;-64
2021/04/03 07:09:48;;;;;;;15.40;10.63;;;;;;;3.81;83.28;99708.09;234000;1170;194708;-64
2021/04/03 07:14:51;;;;;;;17.70;11.50;;;;;;;3.95;83.60;99707.20;233307;1174;114805;-64
2021/04/03 07:19:59;;;;;;;14.28;10.23;;;;;;;4.13;83.49;99717.25;233515;1174;115018;-65
2021/04/03 07:25:06;;;;;;;16.15;11.70;;;;;;;4.28;82.13;99711.88;233498;1174;115357;-64
2021/04/03 07:30:11;;;;;;;18.40;10.90;;;;;;;4.20;81.94;99728.66;233565;1174;115496;-64
2021/04/03 07:35:17;;;;;;;11.20;7.80;;;;;;;3.85;82.58;99737.54;233972;1174;115774;-64
2021/04/03 07:40:24;;;;;;;11.50;8.15;;;;;;;3.83;82.39;99748.28;235079;1174;115162;-66
2021/04/03 07:45:41;;;;;;;7.13;5.93;;;;;;;3.97;82.32;99760.58;233896;1174;115328;-65
2021/04/03 07:50:47;;;;;;;9.20;6.58;;;;;;;4.02;80.49;99767.89;234934;1174;115074;-65
2021/04/03 07:56:18;;;;;;;7.67;5.63;;;;;;;3.99;79.14;99776.99;234480;1170;114620;-63
2021/04/03 08:01:28;;;;;;;11.15;7.80;;;;;;;4.22;78.75;99789.97;233778;1174;116042;-63
2021/04/03 08:06:38;;;;;;;11.35;7.65;;;;;;;4.28;78.74;99797.09;232847;1174;115357;-63
2021/04/03 08:11:46;;;;;;;15.53;8.38;;;;;;;4.66;79.30;99800.19;233238;1174;114671;-64
2021/04/03 08:16:50;;;;;;;5.10;4.33;;;;;;;5.17;76.57;99799.01;233254;1174;116363;-66
2021/04/03 08:21:54;;;;;;;7.85;6.40;;;;;;;5.64;73.59;99803.39;232854;1170;115059;-64
2021/04/03 08:26:58;;;;;;;6.57;5.47;;;;;;;5.68;72.72;99813.37;233418;1174;115179;-66
2021/04/03 08:32:04;;;;;;;7.60;5.73;;;;;;;5.76;72.68;99820.30;232544;1174;115273;-64
2021/04/03 08:37:11;;;;;;;7.20;4.98;;;;;;;5.66;70.54;99825.97;232540;1174;116299;-66
2021/04/03 08:42:16;;;;;;;8.30;4.87;;;;;;;6.14;69.40;99835.61;232314;1174;115339;-66
2021/04/03 08:47:20;;;;;;;7.40;5.65;;;;;;;6.59;67.67;99833.97;232669;1174;116845;-66
2021/04/03 08:52:27;;;;;;;4.73;4.20;;;;;;;6.59;65.70;99840.08;233224;1174;115859;-67
2021/04/03 08:57:31;;;;;;;3.75;2.90;;;;;;;7.14;64.04;99837.06;232883;1174;118974;-67
2021/04/03 09:02:36;;;;;;;3.05;2.60;;;;;;;7.56;63.83;99840.97;232461;1174;116161;-65
2021/04/03 09:07:41;;;;;;;7.45;4.95;;;;;;;7.54;61.39;99845.67;232810;1176;115371;-67
2021/04/03 09:12:47;;;;;;;3.36;3.06;;;;;;;7.28;61.28;99846.61;232745;1174;115037;-66
2021/04/03 09:17:52;;;;;;;5.70;4.00;;;;;;;7.58;62.28;99849.53;232651;1174;115740;-66
2021/04/03 09:23:05;;;;;;;4.40;3.97;;;;;;;7.18;62.51;99859.49;233520;1170;116241;-66
2021/04/03 09:28:11;;;;;;;5.70;3.77;;;;;;;7.70;63.29;99866.38;233290;1174;115646;-67
2021/04/03 09:33:26;;;;;;;3.86;3.56;;;;;;;7.92;59.43;99864.23;234709;1174;116871;-65
2021/04/03 09:38:37;;;;;;;3.43;2.73;;;;;;;7.65;56.54;99864.36;233780;1174;115733;-66
2021/04/03 09:43:42;;;;;;;3.00;2.40;;;;;;;8.10;56.62;99854.49;235145;1174;114981;-68
2021/04/03 09:48:46;;;;;;;1.73;1.60;;;;;;;8.37;56.48;99860.44;234913;1174;115042;-68
2021/04/03 09:53:51;;;;;;;3.63;1.80;;;;;;;8.72;51.56;99867.90;234715;1168;116119;-67
2021/04/03 09:58:57;;;;;;;3.60;1.70;;;;;;;8.73;52.43;99865.02;235084;1174;116529;-66
2021/04/03 10:04:02;;;;;;;3.35;1.85;;;;;;;8.68;52.54;99864.05;234428;1174;115632;-66
2021/04/03 10:09:05;;;;;;;3.00;1.88;;;;;;;9.09;48.85;99866.08;234389;1176;115931;-66
2021/04/03 10:14:08;;;;;;;3.30;1.60;;;;;;;9.22;45.65;99867.77;232692;1174;116323;-67
2021/04/03 10:19:13;;;;;;;5.33;1.70;;;;;;;9.74;50.74;99868.96;233339;1175;116073;-66
2021/04/03 10:24:17;;;;;;;1.70;1.60;;;;;;;9.67;48.29;99862.91;233635;1174;116846;-67
2021/04/03 10:29:19;;;;;;;6.03;3.00;;;;;;;9.76;48.65;99866.89;232664;1174;116615;-67
2021/04/03 10:34:23;;;;;;;1.15;1.13;;;;;;;9.71;48.67;99872.88;232519;1174;115711;-68
2021/04/03 10:39:26;;;;;;;2.90;1.70;;;;;;;9.80;42.67;99874.17;232564;1174;115982;-66
2021/04/03 10:44:29;;;;;;;4.37;2.63;;;;;;;9.85;45.85;99864.70;232655;1174;115432;-67
2021/04/03 10:49:32;;;;;;;2.27;1.27;;;;;;;9.91;43.63;99861.13;232459;1175;115437;-66
2021/04/03 10:54:36;;;;;;;1.45;1.35;;;;;;;10.25;47.22;99855.11;232982;1174;116348;-64
2021/04/03 10:59:41;;;;;;;2.50;2.30;;;;;;;10.67;42.88;99852.36;232970;1174;115944;-68
2021/04/03 11:04:45;;;;;;;0.90;0.90;;;;;;;10.02;41.84;99855.85;232471;1175;115941;-69
2021/04/03 11:09:50;;;;;;;3.28;1.28;;;;;;;9.58;43.30;99865.06;232710;1174;116447;-68
2021/04/03 11:14:53;;;;;;;0.83;0.83;;;;;;;8.99;44.57;99874.56;234183;1174;115743;-68
2021/04/03 11:19:59;;;;;;;1.10;0.90;;;;;;;8.53;44.97;99871.56;234816;1175;117958;-66
2021/04/03 11:25:05;;;;;;;0.90;0.90;;;;;;;8.78;45.58;99862.52;234942;1176;117933;-65
2021/04/03 11:30:16;;;;;;;3.03;0.70;;;;;;;8.58;44.34;99858.41;234862;1175;117090;-67
2021/04/03 11:35:27;;;;;;;1.60;1.03;;;;;;;8.41;42.63;99852.85;235136;1174;116652;-67
2021/04/03 11:40:30;;;;;;;1.98;0.80;;;;;;;8.83;48.64;99861.87;235160;1174;115916;-66
2021/04/03 11:45:34;;;;;;;0.93;0.88;;;;;;;9.02;43.83;99858.17;235072;1174;114759;-69
2021/04/03 11:50:38;;;;;;;2.00;1.20;;;;;;;8.76;43.87;99855.80;234661;1174;116327;-66
2021/04/03 11:55:44;;;;;;;3.40;0.97;;;;;;;8.93;47.00;99851.52;233157;1174;116894;-67
2021/04/03 12:00:47;;;;;;;0.70;0.70;;;;;;;8.64;47.29;99861.02;233324;1174;116720;-67
2021/04/03 12:05:49;;;;;;;2.20;1.17;;;;;;;8.66;50.78;99868.77;232470;1174;115180;-69
2021/04/03 12:10:53;;;;;;;1.20;1.10;;;;;;;8.58;47.63;99879.66;233828;1174;116824;-67
2021/04/03 12:15:56;;;;;;;0.67;0.50;;;;;;;8.72;48.27;99881.19;234343;1174;115387;-66
2021/04/03 12:20:59;;;;;;;0.50;0.50;;;;;;;8.78;49.08;99880.31;233239;1174;115328;-70
2021/04/03 12:26:03;;;;;;;0.55;0.50;;;;;;;9.02;46.93;99890.08;232563;1174;116610;-67
2021/04/03 12:31:08;;;;;;;0.40;0.40;;;;;;;9.15;47.65;99885.67;233530;1174;115424;-66
2021/04/03 12:36:11;;;;;;;2.80;1.43;;;;;;;9.15;49.01;99893.64;232575;1174;116607;-68
2021/04/03 12:41:14;;;;;;;1.35;1.20;;;;;;;9.23;45.40;99882.69;232590;1176;115854;-68
2021/04/03 12:46:18;;;;;;;1.95;0.85;;;;;;;9.32;48.91;99876.04;233166;1174;115371;-69
2021/04/03 12:51:23;;;;;;;1.43;1.30;;;;;;;9.56;44.54;99875.12;232737;1174;115897;-68
2021/04/03 12:56:26;;;;;;;2.85;2.65;;;;;;;9.78;42.66;99865.59;232553;1174;115594;-66
2021/04/03 13:01:29;;;;;;;1.53;0.80;;;;;;;10.00;45.36;99862.44;233838;1175;116120;-68
2021/04/03 13:06:34;;;;;;;1.83;1.73;;;;;;;10.12;42.13;99879.25;232943;1174;117091;-67
2021/04/03 13:11:37;;;;;;;1.80;1.70;;;;;;;9.54;42.40;99882.52;232589;1174;115369;-66
2021/04/03 13:16:41;;;;;;;2.93;1.23;;;;;;;9.00;47.07;99894.80;233778;1174;116553;-66
2021/04/03 13:21:46;;;;;;;1.97;1.17;;;;;;;7.63;52.12;99906.23;234058;1173;118732;-65
2021/04/03 13:26:49;;;;;;;2.50;2.13;;;;;;;6.61;61.12;99940.52;232603;1174;115653;-67
2021/04/03 13:31:53;;;;;;;2.25;2.05;;;;;;;5.97;65.24;99975.44;234164;1177;115402;-68
2021/04/03 13:36:56;;;;;;;2.23;1.50;;;;;;;5.23;69.22;99994.58;234754;1174;116291;-65
2021/04/03 13:42:00;;;;;;;1.83;1.27;;;;;;;5.10;70.90;99996.33;233472;1174;117324;-67
2021/04/03 13:47:03;;;;;;;2.30;2.18;;;;;;;5.25;72.80;100000.48;232906;1174;115841;-68
2021/04/03 13:52:07;;;;;;;1.80;1.70;;;;;;;5.14;71.90;99987.83;233090;1174;116213;-65
2021/04/03 13:57:10;;;;;;;1.88;1.78;;;;;;;5.04;71.74;99997.91;234962;1174;115960;-67
2021/04/03 14:02:13;;;;;;;1.80;1.70;;;;;;;5.19;71.03;100000.47;234910;1174;115935;-68
2021/04/03 14:07:16;;;;;;;2.55;2.40;;;;;;;5.28;72.36;100008.03;234911;1171;115361;-68
2021/04/03 14:12:20;;;;;;;2.43;1.40;;;;;;;5.34;71.87;99993.23;232821;1174;116732;-68
2021/04/03 14:17:24;;;;;;;3.43;2.80;;;;;;;5.55;69.96;99993.13;232779;1175;116115;-67
2021/04/03 14:22:27;;;;;;;4.60;2.07;;;;;;;5.68;69.88;99993.22;232295;1174;116914;-68
2021/04/03 14:27:31;;;;;;;5.30;2.37;;;;;;;5.81;68.93;99978.42;232552;1174;117636;-67
2021/04/03 14:32:35;;;;;;;2.08;1.98;;;;;;;5.85;67.79;99979.63;233736;1176;115823;-66
2021/04/03 14:37:38;;;;;;;3.03;2.50;;;;;;;6.05;67.85;99976.09;233158;1176;115345;-66
2021/04/03 14:42:42;;;;;;;8.08;3.15;;;;;;;6.25;66.50;99977.95;232995;1175;116196;-69
2021/04/03 14:47:45;;;;;;;2.48;2.03;;;;;;;6.46;66.31;99983.08;232667;1174;115880;-67
2021/04/03 14:52:49;;;;;;;2.60;2.30;;;;;;;6.56;64.33;99980.85;232801;1174;116024;-68
2021/04/03 14:57:54;;;;;;;5.60;3.07;;;;;;;6.59;65.53;99974.34;232910;1176;116068;-69
2021/04/03 15:02:57;;;;;;;3.30;3.00;;;;;;;6.60;65.75;99975.97;232773;1174;115834;-66
2021/04/03 15:08:02;;;;;;;8.60;2.80;;;;;;;6.59;64.95;99969.04;233008;1174;116282;-67
2021/04/03 15:13:06;;;;;;;9.40;4.53;;;;;;;6.60;65.97;99970.67;232903;1174;115752;-68
2021/04/03 15:18:11;;;;;;;2.70;2.20;;;;;;;6.48;65.70;99980.22;232847;1174;115310;-67
2021/04/03 15:23:14;;;;;;;3.40;2.73;;;;;;;6.49;66.32;99979.20;233564;1174;115866;-67
2021/04/03 15:28:17;;;;;;;6.58;4.28;;;;;;;6.72;66.41;99969.88;233704;1174;115618;-68
2021/04/03 15:33:19;;;;;;;6.20;3.33;;;;;;;6.88;64.96;99979.23;232518;1174;115818;-67
2021/04/03 15:38:22;;;;;;;15.10;9.63;;;;;;;6.81;66.86;99989.01;233297;1174;115278;-67
2021/04/03 15:43:26;;;;;;;7.57;4.00;;;;;;;6.71;65.26;99994.73;234661;1174;115098;-67
2021/04/03 15:48:29;;;;;;;8.03;3.27;;;;;;;6.75;65.49;99997.77;234299;1174;114911;-66
2021/04/03 15:53:33;;;;;;;6.07;4.80;;;;;;;6.55;66.51;100000.41;234602;1174;114190;-71
2021/04/03 15:58:37;;;;;;;5.05;4.40;;;;;;;6.45;65.10;99999.16;235184;1174;137430;-70
2021/04/03 16:03:41;;;;;;;1.40;1.30;;;;;;;6.31;63.65;100008.93;234861;1174;115892;-67
2021/04/03 16:08:46;;;;;;;3.33;0.87;;;;;;;5.80;60.85;100019.93;235088;1172;116009;-68
2021/04/03 16:14:09;;;;;;;3.17;0.60;;;;;;;4.82;63.90;100022.74;234869;1174;115577;-69
2021/04/03 16:19:12;;;;;;;0.50;0.50;;;;;;;4.47;65.86;100032.36;234668;1174;115012;-69
2021/04/03 16:24:16;;;;;;;2.60;1.10;;;;;;;4.24;65.91;100043.91;233918;1174;116248;-67
2021/04/03 16:29:19;;;;;;;1.10;0.70;;;;;;;4.05;66.84;100047.12;234031;1170;115535;-67
2021/04/03 16:34:23;;;;;;;0.57;0.50;;;;;;;3.92;67.14;100039.06;233422;1173;115162;-66
2021/04/03 16:39:27;;;;;;;0.57;0.57;;;;;;;4.02;68.16;100035.11;232476;1174;116989;-67
2021/04/03 16:44:32;;;;;;;1.40;1.30;;;;;;;3.99;66.88;100048.67;232918;1174;115883;-68
2021/04/03 16:49:35;;;;;;;2.25;1.33;;;;;;;3.88;66.66;100049.16;233336;1174;116189;-66
2021/04/03 16:54:38;;;;;;;3.05;1.05;;;;;;;3.91;66.99;100056.70;232813;1174;115640;-65
2021/04/03 16:59:43;;;;;;;2.85;2.60;;;;;;;3.90;67.05;100047.16;233000;1174;216577;-65
2021/04/03 17:04:47;;;;;;;4.73;1.80;;;;;;;4.05;66.63;100047.12;232767;1174;117414;-68
2021/04/03 17:09:50;;;;;;;2.45;2.00;;;;;;;4.16;66.15;100037.91;232392;1176;115879;-66
2021/04/03 17:14:54;;;;;;;6.93;5.60;;;;;;;4.17;65.60;100047.47;233014;1174;118876;-65
2021/04/03 17:19:59;;;;;;;13.03;6.60;;;;;;;4.12;65.94;100052.48;232598;1174;116041;-66
2021/04/03 17:25:03;;;;;;;10.43;3.88;;;;;;;3.97;65.44;100055.16;232697;1167;117119;-67
2021/04/03 17:30:16;;;;;;;4.50;2.65;;;;;;;3.75;66.27;100061.34;233040;1174;116766;-67
2021/04/03 17:35:20;;;;;;;5.30;4.20;;;;;;;3.57;66.61;100070.44;232603;1175;115386;-64
2021/04/03 17:40:23;;;;;;;7.20;4.73;;;;;;;3.44;67.70;100075.51;233027;1174;115888;-65
2021/04/03 17:45:27;;;;;;;24.90;12.23;;;;;;;3.34;68.20;100088.14;232973;1174;115784;-66
2021/04/03 17:50:30;;;;;;;31.73;14.63;;;;;;;3.23;67.33;100089.39;234857;1174;115193;-67
2021/04/03 17:55:33;;;;;;;54.67;18.27;;;;;;;3.20;67.84;100105.55;233842;1174;116045;-66
2021/04/03 18:00:58;;;;;;;17.50;8.28;;;;;;;3.19;66.75;100113.63;234380;1174;115688;-67
2021/04/03 18:06:05;;;;;;;10.57;6.60;;;;;;;3.15;66.87;100126.33;233454;1174;116085;-66
2021/04/03 18:11:08;;;;;;;;;;;;;;;3.07;67.28;100134.28;234455;1174;116325;-67
2021/04/03 18:16:11;;;;;;;10.05;7.85;;;;;;;2.97;67.00;100139.81;235748;1174;105356;-66
2021/04/03 18:21:16;;;;;;;9.80;4.33;;;;;;;2.89;68.56;100149.58;234629;1174;115551;-67
2021/04/03 18:26:19;;;;;;;9.98;5.40;;;;;;;2.86;67.97;100158.64;233697;1174;115609;-66
2021/04/03 18:31:22;;;;;;;17.18;6.60;;;;;;;2.89;68.87;100154.84;233778;1175;115578;-65
2021/04/03 18:36:25;;;;;;;14.40;8.95;;;;;;;2.90;70.27;100159.93;232898;1168;115057;-66
2021/04/03 18:41:29;;;;;;;11.70;6.93;;;;;;;2.91;69.76;100163.39;233628;1174;116392;-66
2021/04/03 18:46:34;;;;;;;12.75;5.80;;;;;;;2.93;69.96;100171.94;233101;1174;115145;-66
2021/04/03 18:51:38;;;;;;;13.05;5.78;;;;;;;2.89;70.65;100178.53;232773;1174;115824;-66
2021/04/03 18:56:44;;;;;;;7.93;4.67;;;;;;;2.77;70.39;100177.28;233803;1174;115465;-66
2021/04/03 19:01:48;;;;;;;12.93;6.13;;;;;;;2.77;70.75;100183.37;233304;1174;114967;-66
2021/04/03 19:06:53;;;;;;;13.40;6.90;;;;;;;2.81;70.63;100197.01;232792;1174;115415;-65
2021/04/03 19:11:59;;;;;;;11.03;5.55;;;;;;;2.79;70.35;100191.91;233024;1171;115759;-66
2021/04/03 19:17:03;;;;;;;12.60;6.73;;;;;;;2.73;71.03;100205.80;233537;1174;115349;-65
2021/04/03 19:22:08;;;;;;;13.85;4.80;;;;;;;2.62;71.58;100203.53;232776;1174;115503;-66
2021/04/03 19:27:11;;;;;;;22.33;11.00;;;;;;;2.46;72.80;100217.56;233239;1174;115419;-66
2021/04/03 19:32:14;;;;;;;10.33;5.40;;;;;;;2.46;71.18;100219.38;232997;1174;115916;-65
2021/04/03 19:37:17;;;;;;;17.20;8.00;;;;;;;2.45;71.32;100220.36;233202;1176;115564;-65
2021/04/03 19:42:25;;;;;;;13.40;6.33;;;;;;;2.38;70.19;100219.43;232834;1175;115613;-65
2021/04/03 19:47:28;;;;;;;15.43;9.13;;;;;;;2.32;68.87;100229.64;234057;1175;114802;-66
2021/04/03 19:52:31;;;;;;;21.65;12.40;;;;;;;2.26;69.90;100235.56;232842;1176;114991;-66
2021/04/03 19:57:35;;;;;;;11.45;7.48;;;;;;;2.14;69.45;100233.48;232616;1174;115040;-66
2021/04/03 20:02:37;;;;;;;11.77;5.27;;;;;;;2.03;68.89;100237.27;234411;1174;115255;-66
2021/04/03 20:07:41;;;;;;;9.57;5.17;;;;;;;2.03;69.05;100245.16;234113;1174;116256;-66
2021/04/03 20:12:45;;;;;;;21.37;10.90;;;;;;;2.05;68.61;100243.19;235139;1174;115234;-66
2021/04/03 20:17:49;;;;;;;6.93;5.15;;;;;;;1.99;69.05;100255.19;235034;1170;115229;-66
2021/04/03 20:22:53;;;;;;;6.40;4.48;;;;;;;1.89;69.87;100251.91;234379;1174;115070;-66
2021/04/03 20:27:57;;;;;;;8.33;4.93;;;;;;;1.79;68.93;100253.91;235209;1174;114949;-66
2021/04/03 20:33:05;;;;;;;9.97;3.70;;;;;;;1.73;69.44;100261.63;234525;1174;114510;-66
2021/04/03 20:38:09;;;;;;;7.65;4.10;;;;;;;1.73;69.67;100251.11;233983;1174;114870;-65
2021/04/03 20:43:13;;;;;;;10.45;6.68;;;;;;;1.67;69.41;100256.03;232764;1174;115330;-65
2021/04/03 20:48:16;;;;;;;9.75;5.33;;;;;;;1.64;69.74;100261.61;233406;1174;115589;-66
2021/04/03 20:53:20;;;;;;;8.88;4.28;;;;;;;1.59;70.43;100270.97;233207;1174;115289;-65
2021/04/03 20:58:28;;;;;;;12.78;6.30;;;;;;;1.52;69.72;100276.08;233643;1174;115520;-65
2021/04/03 21:03:32;;;;;;;8.53;4.70;;;;;;;1.46;70.33;100276.72;232693;1174;115737;-65
2021/04/03 21:08:37;;;;;;;10.60;5.18;;;;;;;1.47;70.97;100280.17;233528;1174;115075;-66
2021/04/03 21:13:41;;;;;;;10.55;4.70;;;;;;;1.42;71.10;100291.16;232616;1174;115190;-65
2021/04/03 21:18:45;;;;;;;11.73;4.73;;;;;;;1.41;71.02;100292.14;233373;1169;115390;-66
2021/04/03 21:23:50;;;;;;;9.48;4.70;;;;;;;1.37;69.94;100295.25;233268;1170;114895;-65
2021/04/03 21:28:55;;;;;;;8.20;4.33;;;;;;;1.37;70.10;100306.58;232805;1174;116205;-65
2021/04/03 21:33:59;;;;;;;13.70;6.17;;;;;;;1.28;71.22;100300.48;233294;1174;114768;-65
2021/04/03 21:39:03;;;;;;;8.03;5.33;;;;;;;1.23;71.66;100309.82;233798;1174;115768;-65
2021/04/03 21:44:07;;;;;;;11.55;5.50;;;;;;;1.10;72.32;100309.47;232640;1174;115486;-64
2021/04/03 21:49:11;;;;;;;11.53;6.18;;;;;;;0.92;72.65;100304.31;233691;1170;117069;-65
2021/04/03 21:54:15;;;;;;;9.23;6.23;;;;;;;0.72;73.33;100319.49;233946;1174;115522;-65
2021/04/03 21:59:19;;;;;;;17.15;6.13;;;;;;;0.54;74.21;100316.13;234185;1174;115637;-65
2021/04/03 22:04:23;;;;;;;8.33;4.13;;;;;;;0.39;75.51;100331.61;234573;1174;114709;-65
2021/04/03 22:09:27;;;;;;;10.30;4.65;;;;;;;0.30;75.68;100328.13;235139;1174;114767;-65
2021/04/03 22:14:30;;;;;;;11.67;5.37;;;;;;;0.24;75.86;100331.36;233287;1174;114989;-64
2021/04/03 22:19:34;;;;;;;14.97;7.57;;;;;;;0.25;75.88;100340.88;234458;1174;114793;-64
2021/04/03 22:24:39;;;;;;;11.80;6.50;;;;;;;0.25;76.99;100338.25;235061;1167;115003;-65
2021/04/03 22:29:44;;;;;;;14.80;7.93;;;;;;;0.25;76.09;100342.67;234568;1174;114884;-65
2021/04/03 22:34:48;;;;;;;17.33;7.98;;;;;;;0.14;76.29;100330.63;235093;1174;114870;-65
2021/04/03 22:39:52;;;;;;;25.40;9.60;;;;;;;0.03;77.19;100325.62;233929;1174;116134;-65
2021/04/03 22:44:55;;;;;;;24.43;8.50;;;;;;;-0.05;77.83;100331.64;233778;1174;115219;-65
2021/04/03 22:49:58;;;;;;;28.63;10.93;;;;;;;-0.12;77.62;100330.59;233637;1174;217458;-64
2021/04/03 22:55:04;;;;;;;19.48;9.55;;;;;;;-0.22;76.42;100329.84;233859;1174;115372;-65
2021/04/03 23:00:18;;;;;;;20.70;9.20;;;;;;;-0.24;75.85;100334.41;232871;1174;116439;-64
2021/04/03 23:05:26;;;;;;;11.07;5.37;;;;;;;-0.41;77.67;100335.25;232666;1174;115809;-64
2021/04/03 23:10:30;;;;;;;12.60;5.10;;;;;;;-0.59;78.23;100339.63;233442;1173;115580;-64
2021/04/03 23:15:34;;;;;;;14.07;7.27;;;;;;;-0.68;78.97;100341.37;233675;1174;115646;-64
2021/04/03 23:20:38;;;;;;;14.83;8.53;;;;;;;-0.77;78.97;100344.86;232457;1174;116094;-64